Terminal Aerodrome Forecast
Issued by NWS

Home | Current Version | Previous Version | Text Only | Print | Product List | Glossary On
Versions: 1 2 3 4 5 6 7 8 9 10 11 12 13 14 15 16
000
FTUS44 KCRP 291740
TAFALI
TAF
KALI 291740Z 2918/3018 15010KT P6SM FEW040
     FM292000 13015G22KT P6SM SKC
     FM300200 15010KT P6SM FEW020
     FM300800 17003KT 3SM BR SCT005
      TEMPO 3010/3014 1SM BR BKN015
     FM301400 16006KT P6SM SCT025=

USA.gov is the U.S. government's official web portal to all federal, state and local government web resources and services.